createdAt,value
2023-06-30T00:01:35.576Z,100796.38
2023-06-30T00:04:03.269Z,100789.09
2023-06-30T00:06:33.641Z,100791.81
2023-06-30T00:09:00.927Z,100787.19
2023-06-30T00:11:28.327Z,100783.44
2023-06-30T00:13:56.625Z,100789.72
2023-06-30T00:16:24.014Z,100787.19
2023-06-30T00:18:51.491Z,100789.72
2023-06-30T00:21:18.869Z,100788.03
2023-06-30T00:23:46.160Z,100787.00
2023-06-30T00:26:13.445Z,100787.00
2023-06-30T00:28:40.882Z,100783.44
2023-06-30T00:31:08.316Z,100791.41
2023-06-30T00:33:36.454Z,100785.97
2023-06-30T00:36:03.935Z,100791.41
2023-06-30T00:38:31.300Z,100792.25
2023-06-30T00:40:58.635Z,100790.41
2023-06-30T00:43:25.944Z,100785.97
2023-06-30T00:45:53.368Z,100783.25
2023-06-30T00:48:20.748Z,100774.25
2023-06-30T00:50:48.337Z,100776.81
2023-06-30T00:53:16.553Z,100783.25
2023-06-30T00:55:45.939Z,100778.66
2023-06-30T00:58:13.602Z,100772.38
2023-06-30T01:00:40.997Z,100775.94
2023-06-30T01:03:30.659Z,100767.78
2023-06-30T01:06:04.334Z,100774.09
2023-06-30T01:09:02.279Z,100774.09
2023-06-30T01:11:34.050Z,100775.94
2023-06-30T01:14:04.210Z,100771.38
2023-06-30T01:16:33.214Z,100769.66
2023-06-30T01:19:07.471Z,100777.66
2023-06-30T01:21:35.460Z,100775.75
2023-06-30T01:24:07.960Z,100769.50
2023-06-30T01:26:36.987Z,100775.75
2023-06-30T01:29:07.961Z,100773.88
2023-06-30T01:31:37.333Z,100773.03
2023-06-30T01:34:04.693Z,100775.75
2023-06-30T01:36:32.162Z,100775.75
2023-06-30T01:39:00.208Z,100775.56
2023-06-30T01:41:27.775Z,100761.34
2023-06-30T01:43:55.694Z,100770.31
2023-06-30T01:46:23.099Z,100762.16
2023-06-30T01:48:50.710Z,100763.84
2023-06-30T01:51:19.415Z,100763.00
2023-06-30T01:53:46.922Z,100759.44
2023-06-30T01:56:14.444Z,100756.72
2023-06-30T01:58:41.761Z,100756.72
2023-06-30T02:01:09.118Z,100750.25
2023-06-30T02:03:36.536Z,100760.09
2023-06-30T02:06:04.283Z,100764.69
2023-06-30T02:08:31.728Z,100754.00
2023-06-30T02:10:59.077Z,100756.72
2023-06-30T02:13:27.413Z,100754.66
2023-06-30T02:15:54.732Z,100754.66
2023-06-30T02:18:23.522Z,100743.78
2023-06-30T02:20:50.872Z,100746.50
2023-06-30T02:23:18.192Z,100745.66
2023-06-30T02:25:46.280Z,100736.66
2023-06-30T02:28:13.893Z,100737.50
2023-06-30T02:30:41.284Z,100738.34
2023-06-30T02:33:08.797Z,100741.06
2023-06-30T02:35:36.225Z,100736.50
2023-06-30T02:38:05.041Z,100741.72
2023-06-30T02:40:32.662Z,100740.06
2023-06-30T02:43:00.630Z,100738.34
2023-06-30T02:45:27.958Z,100739.38
2023-06-30T02:47:55.395Z,100727.88
2023-06-30T02:50:32.951Z,100720.56
2023-06-30T02:53:01.928Z,100714.28
2023-06-30T02:55:29.925Z,100709.00
2023-06-30T02:57:58.494Z,100715.28
2023-06-30T03:00:26.223Z,100717.16
2023-06-30T03:02:54.575Z,100712.56
2023-06-30T03:05:22.511Z,100713.59
2023-06-30T03:07:49.801Z,100716.31
2023-06-30T03:10:19.532Z,100713.59
2023-06-30T03:12:47.094Z,100727.19
2023-06-30T03:15:14.654Z,100728.03
2023-06-30T03:17:42.220Z,100733.66
2023-06-30T03:20:16.785Z,100735.34
2023-06-30T03:22:44.529Z,100729.06
2023-06-30T03:25:12.014Z,100725.50
2023-06-30T03:27:39.358Z,100726.56
2023-06-30T03:30:07.486Z,100720.06
2023-06-30T03:32:39.131Z,100714.81
2023-06-30T03:35:06.622Z,100712.09
2023-06-30T03:37:34.606Z,100708.53
2023-06-30T03:40:02.249Z,100713.13
2023-06-30T03:42:29.931Z,100706.84
2023-06-30T03:44:57.220Z,100707.69
2023-06-30T03:47:24.865Z,100701.41
2023-06-30T03:49:52.176Z,100706.84
2023-06-30T03:52:20.938Z,100715.00
2023-06-30T03:54:48.301Z,100709.56
2023-06-30T03:57:16.537Z,100706.84
2023-06-30T03:59:43.908Z,100712.28
2023-06-30T04:02:11.236Z,100718.56
2023-06-30T04:04:38.848Z,100717.72
2023-06-30T04:07:06.629Z,100717.72
2023-06-30T04:09:34.022Z,100720.44
2023-06-30T04:12:01.315Z,100709.56
2023-06-30T04:14:28.616Z,100702.47
2023-06-30T04:16:57.072Z,100706.00
2023-06-30T04:19:26.493Z,100707.88
2023-06-30T04:21:53.825Z,100707.88
2023-06-30T04:24:21.146Z,100702.47
2023-06-30T04:26:48.579Z,100706.84
2023-06-30T04:29:16.801Z,100705.16
2023-06-30T04:31:44.854Z,100707.88
2023-06-30T04:34:12.142Z,100711.44
2023-06-30T04:36:39.420Z,100707.88
2023-06-30T04:39:06.825Z,100715.00
2023-06-30T04:41:34.185Z,100703.28
2023-06-30T04:44:01.469Z,100705.16
2023-06-30T04:46:28.831Z,100707.88
2023-06-30T04:48:57.146Z,100707.06
2023-06-30T04:51:25.157Z,100711.44
2023-06-30T04:53:52.724Z,100708.72
2023-06-30T04:56:20.963Z,100705.16
2023-06-30T04:58:51.010Z,100705.16
2023-06-30T05:01:18.501Z,100703.28
2023-06-30T05:03:45.844Z,100694.31
2023-06-30T05:06:13.296Z,100678.81
2023-06-30T05:08:40.595Z,100672.56
2023-06-30T05:11:08.932Z,100676.09
2023-06-30T05:13:36.624Z,100672.56
2023-06-30T05:16:04.150Z,100668.78
2023-06-30T05:18:31.541Z,100661.69
2023-06-30T05:20:58.848Z,100645.38
2023-06-30T05:23:26.176Z,100648.09
2023-06-30T05:25:54.037Z,100655.19
2023-06-30T05:28:21.557Z,100645.38
2023-06-30T05:30:48.836Z,100639.09
2023-06-30T05:33:16.268Z,100641.59
2023-06-30T05:35:43.744Z,100639.09
2023-06-30T05:38:11.222Z,100639.09
2023-06-30T05:40:38.560Z,100637.22
2023-06-30T05:43:05.976Z,100635.53
2023-06-30T05:45:33.318Z,100640.09
2023-06-30T05:48:00.804Z,100633.81
2023-06-30T05:50:30.026Z,100646.41
2023-06-30T05:52:57.454Z,100644.69
2023-06-30T05:55:24.868Z,100642.81
2023-06-30T05:57:52.179Z,100649.13
2023-06-30T06:00:19.960Z,100649.13
2023-06-30T06:02:47.459Z,100651.84
2023-06-30T06:05:14.999Z,100652.00
2023-06-30T06:07:42.455Z,100648.47
2023-06-30T06:10:10.055Z,100649.50
2023-06-30T06:12:40.416Z,100651.19
2023-06-30T06:15:11.130Z,100653.88
2023-06-30T06:17:38.519Z,100659.31
2023-06-30T06:20:06.286Z,100662.16
2023-06-30T06:22:33.622Z,100667.03
2023-06-30T06:25:00.938Z,100682.66
2023-06-30T06:27:30.056Z,100688.63
2023-06-30T06:29:57.442Z,100706.63
2023-06-30T06:32:24.799Z,100708.34
2023-06-30T06:34:52.198Z,100718.84
2023-06-30T06:37:19.506Z,100711.53
2023-06-30T06:39:46.961Z,100721.38
2023-06-30T06:42:14.356Z,100712.19
2023-06-30T06:44:41.717Z,100689.41
2023-06-30T06:47:46.727Z,100699.94
2023-06-30T06:50:14.062Z,100694.50
2023-06-30T06:52:41.321Z,100697.56
2023-06-30T06:55:08.910Z,100697.56
2023-06-30T06:57:36.322Z,100690.25
2023-06-30T07:00:05.774Z,100701.38
2023-06-30T07:02:33.343Z,100695.94
2023-06-30T07:05:00.968Z,100695.94
2023-06-30T07:07:29.938Z,100686.84
2023-06-30T07:09:59.847Z,100677.75
2023-06-30T07:12:27.145Z,100685.25
2023-06-30T07:14:54.466Z,100683.38
2023-06-30T07:17:22.547Z,100673.56
2023-06-30T07:19:49.926Z,100676.44
2023-06-30T07:22:17.885Z,100678.66
2023-06-30T07:24:45.462Z,100682.88
2023-06-30T07:27:12.742Z,100683.44
2023-06-30T07:29:39.983Z,100694.28
2023-06-30T07:32:07.616Z,100691.56
2023-06-30T07:34:37.213Z,100686.22
2023-06-30T07:37:07.178Z,100670.47
2023-06-30T07:39:37.993Z,100670.19
2023-06-30T07:42:05.767Z,100672.84
2023-06-30T07:44:34.731Z,100667.22
2023-06-30T07:47:02.147Z,100666.25
2023-06-30T07:49:29.827Z,100662.44
2023-06-30T07:51:57.166Z,100656.47
2023-06-30T07:54:24.419Z,100653.47
2023-06-30T07:56:51.690Z,100655.03
2023-06-30T07:59:18.988Z,100648.75
2023-06-30T08:01:46.368Z,100650.34
2023-06-30T08:04:13.935Z,100654.59
2023-06-30T08:06:41.453Z,100657.19
2023-06-30T08:09:08.764Z,100660.94
2023-06-30T08:11:36.199Z,100646.03
2023-06-30T08:14:05.385Z,100647.91
2023-06-30T08:16:32.724Z,100659.06
2023-06-30T08:19:00.555Z,100652.91
2023-06-30T08:21:28.066Z,100654.22
2023-06-30T08:23:55.652Z,100659.09
2023-06-30T08:26:22.973Z,100658.75
2023-06-30T08:28:51.365Z,100659.38
2023-06-30T08:31:18.739Z,100655.53
2023-06-30T08:33:46.154Z,100656.88
2023-06-30T08:36:13.648Z,100654.50
2023-06-30T08:38:41.051Z,100656.66
2023-06-30T08:41:09.695Z,100658.19
2023-06-30T08:43:41.245Z,100654.22
2023-06-30T08:46:11.126Z,100649.47
2023-06-30T08:48:38.756Z,100648.44
2023-06-30T08:51:06.781Z,100657.41
2023-06-30T08:53:34.640Z,100654.53
2023-06-30T08:56:02.485Z,100649.94
2023-06-30T08:58:29.917Z,100658.09
2023-06-30T09:00:57.659Z,100667.09
2023-06-30T09:03:25.308Z,100670.84
2023-06-30T09:05:56.717Z,100665.56
2023-06-30T09:08:28.444Z,100662.38
2023-06-30T09:10:56.914Z,100663.41
2023-06-30T09:13:25.206Z,100672.41
2023-06-30T09:15:58.183Z,100678.88
2023-06-30T09:18:26.135Z,100692.66
2023-06-30T09:20:54.328Z,100704.53
2023-06-30T09:23:21.725Z,100713.69
2023-06-30T09:25:49.475Z,100723.53
2023-06-30T09:28:17.289Z,100723.53
2023-06-30T09:30:47.088Z,100725.25
2023-06-30T09:33:16.856Z,100728.78
2023-06-30T09:35:46.670Z,100734.88
2023-06-30T09:38:16.269Z,100739.09
2023-06-30T09:40:50.662Z,100739.94
2023-06-30T09:43:23.160Z,100734.50
2023-06-30T09:45:56.680Z,100729.09
2023-06-30T09:48:36.274Z,100733.31
2023-06-30T09:51:03.763Z,100732.63
2023-06-30T09:53:41.872Z,100729.75
2023-06-30T09:56:09.738Z,100723.28
2023-06-30T09:58:40.292Z,100709.50
2023-06-30T10:01:09.165Z,100703.25
2023-06-30T10:03:51.281Z,100707.63
2023-06-30T10:06:22.032Z,100706.78
2023-06-30T10:08:52.787Z,100712.41
2023-06-30T10:11:23.540Z,100703.25
2023-06-30T10:13:58.932Z,100688.81
2023-06-30T10:16:27.532Z,100677.09
2023-06-30T10:18:57.039Z,100667.09
2023-06-30T10:21:24.389Z,100655.38
2023-06-30T10:23:53.185Z,100643.00
2023-06-30T10:26:22.682Z,100625.03
2023-06-30T10:28:50.529Z,100627.25
2023-06-30T10:31:18.312Z,100628.09
2023-06-30T10:33:45.792Z,100638.81
2023-06-30T10:36:14.659Z,100636.09
2023-06-30T10:38:44.503Z,100631.66
2023-06-30T10:41:21.041Z,100615.34
2023-06-30T10:44:08.447Z,100621.63
2023-06-30T10:46:51.427Z,100603.66
2023-06-30T10:49:28.658Z,100607.22
2023-06-30T10:51:57.678Z,100587.34
2023-06-30T10:54:29.776Z,100575.19
2023-06-30T10:57:13.205Z,100567.22
2023-06-30T10:59:48.407Z,100625.47
2023-06-30T11:02:18.827Z,100631.09
2023-06-30T11:04:47.976Z,100624.34
2023-06-30T11:07:25.765Z,100633.91
2023-06-30T11:09:53.130Z,100625.28
2023-06-30T11:12:21.248Z,100627.50
2023-06-30T11:14:59.858Z,100632.28
2023-06-30T11:17:29.257Z,100631.63
2023-06-30T11:20:11.573Z,100628.91
2023-06-30T11:22:40.467Z,100613.66
2023-06-30T11:25:12.130Z,100621.41
2023-06-30T11:27:40.847Z,100615.97
2023-06-30T11:30:08.840Z,100618.53
2023-06-30T11:32:38.218Z,100611.78
2023-06-30T11:35:08.826Z,100603.16
2023-06-30T11:37:37.710Z,100614.88
2023-06-30T11:40:08.502Z,100620.28
2023-06-30T11:42:40.444Z,100620.66
2023-06-30T11:45:08.532Z,100636.94
2023-06-30T11:47:37.158Z,100634.41
2023-06-30T11:50:12.593Z,100639.00
2023-06-30T11:52:40.543Z,100641.53
2023-06-30T11:55:09.693Z,100649.03
2023-06-30T11:57:38.982Z,100652.75
2023-06-30T12:00:10.769Z,100641.22
2023-06-30T12:02:58.872Z,100645.59
2023-06-30T12:05:28.355Z,100635.09
2023-06-30T12:07:57.787Z,100642.59
2023-06-30T12:10:38.109Z,100639.22
2023-06-30T12:13:09.689Z,100643.31
2023-06-30T12:15:38.325Z,100644.72
2023-06-30T12:18:07.522Z,100637.31
2023-06-30T12:20:37.768Z,100622.63
2023-06-30T12:23:08.958Z,100619.41
2023-06-30T12:25:37.593Z,100611.63
2023-06-30T12:28:06.689Z,100606.38
2023-06-30T12:30:34.714Z,100610.97
2023-06-30T12:33:03.282Z,100613.38
2023-06-30T12:35:38.164Z,100606.09
2023-06-30T12:38:08.727Z,100611.72
2023-06-30T12:40:36.451Z,100615.25
2023-06-30T12:43:05.266Z,100609.00
2023-06-30T12:45:35.351Z,100605.59
2023-06-30T12:48:03.537Z,100601.41
2023-06-30T12:50:30.883Z,100600.56
2023-06-30T12:52:58.719Z,100594.47
2023-06-30T12:55:26.873Z,100586.50
2023-06-30T12:57:54.214Z,100583.13
2023-06-30T13:00:21.692Z,100592.09
2023-06-30T13:02:49.355Z,100582.97
2023-06-30T13:05:16.972Z,100583.81
2023-06-30T13:07:44.505Z,100596.13
2023-06-30T13:10:12.012Z,100589.88
2023-06-30T13:12:42.673Z,100582.41
2023-06-30T13:15:10.542Z,100571.38
2023-06-30T13:17:38.038Z,100563.91
2023-06-30T13:20:07.687Z,100572.69
2023-06-30T13:22:36.440Z,100560.66
2023-06-30T13:25:07.871Z,100572.97
2023-06-30T13:27:35.533Z,100564.00
2023-06-30T13:30:03.990Z,100566.91
2023-06-30T13:32:31.411Z,100566.06
2023-06-30T13:34:58.815Z,100572.34
2023-06-30T13:37:27.547Z,100562.88
2023-06-30T13:39:54.815Z,100567.63
2023-06-30T13:42:22.213Z,100565.94
2023-06-30T13:44:49.517Z,100566.13
2023-06-30T13:47:17.070Z,100567.13
2023-06-30T13:49:44.477Z,100561.06
2023-06-30T13:52:11.896Z,100555.84
2023-06-30T13:54:39.472Z,100550.78
2023-06-30T13:57:07.603Z,100542.78
2023-06-30T13:59:34.926Z,100544.88
2023-06-30T14:05:40.271Z,100543.34
2023-06-30T14:08:08.393Z,100544.38
2023-06-30T14:10:35.753Z,100527.06
2023-06-30T14:13:03.661Z,100531.31
2023-06-30T14:15:32.310Z,100534.84
2023-06-30T14:17:59.747Z,100536.53
2023-06-30T14:20:27.061Z,100537.56
2023-06-30T14:22:54.455Z,100539.78
2023-06-30T14:25:24.222Z,100528.31
2023-06-30T14:27:53.896Z,100525.41
2023-06-30T14:30:21.367Z,100527.75
2023-06-30T14:32:48.803Z,100522.50
2023-06-30T14:35:16.132Z,100515.59
2023-06-30T14:37:43.418Z,100522.19
2023-06-30T14:40:11.161Z,100521.38
2023-06-30T14:42:38.470Z,100517.63
2023-06-30T14:45:06.321Z,100513.91
2023-06-30T14:47:33.673Z,100505.56
2023-06-30T14:50:01.025Z,100505.56
2023-06-30T14:52:28.295Z,100509.81
2023-06-30T14:54:55.699Z,100513.84
2023-06-30T14:57:23.361Z,100515.81
2023-06-30T14:59:50.684Z,100516.28
2023-06-30T15:02:18.921Z,100517.41
2023-06-30T15:04:46.544Z,100520.44
2023-06-30T15:07:14.050Z,100527.34
2023-06-30T15:09:41.403Z,100527.66
2023-06-30T15:12:09.325Z,100531.84
2023-06-30T15:14:36.685Z,100527.09
2023-06-30T15:17:04.332Z,100523.16
2023-06-30T15:19:31.809Z,100514.66
2023-06-30T15:21:59.109Z,100516.16
2023-06-30T15:24:26.473Z,100514.09
2023-06-30T15:26:53.776Z,100518.47
2023-06-30T15:29:21.011Z,100514.75
2023-06-30T15:31:49.344Z,100507.25
2023-06-30T15:34:18.241Z,100508.94
2023-06-30T15:36:45.586Z,100504.38
2023-06-30T15:39:12.983Z,100505.84
2023-06-30T15:41:40.355Z,100508.56
2023-06-30T15:44:07.724Z,100508.41
2023-06-30T15:46:35.432Z,100509.03
2023-06-30T15:49:04.967Z,100493.59
2023-06-30T15:51:34.097Z,100489.03
2023-06-30T15:54:01.453Z,100485.31
2023-06-30T15:56:28.866Z,100482.41
2023-06-30T15:58:56.462Z,100485.97
2023-06-30T16:01:23.853Z,100481.56
2023-06-30T16:03:51.384Z,100483.25
2023-06-30T16:06:18.864Z,100483.03
2023-06-30T16:08:46.152Z,100478.47
2023-06-30T16:11:13.718Z,100476.59
2023-06-30T16:13:41.133Z,100483.72
2023-06-30T16:16:08.798Z,100478.28
2023-06-30T16:18:37.578Z,100473.69
2023-06-30T16:21:04.909Z,100483.72
2023-06-30T16:23:32.431Z,100480.81
2023-06-30T16:25:59.926Z,100479.97
2023-06-30T16:28:27.423Z,100476.22
2023-06-30T16:30:55.013Z,100484.19
2023-06-30T16:33:22.483Z,100493.16
2023-06-30T16:35:49.908Z,100495.03
2023-06-30T16:38:17.207Z,100499.63
2023-06-30T16:40:44.726Z,100493.38
2023-06-30T16:43:12.232Z,100486.22
2023-06-30T16:45:39.560Z,100502.53
2023-06-30T16:48:07.737Z,100491.66
2023-06-30T16:50:35.138Z,100493.72
2023-06-30T16:53:02.514Z,100494.56
2023-06-30T16:55:29.820Z,100493.91
2023-06-30T16:57:57.283Z,100493.91
2023-06-30T17:00:25.154Z,100485.75
2023-06-30T17:02:52.713Z,100475.09
2023-06-30T17:05:21.265Z,100460.69
2023-06-30T17:07:50.262Z,100462.38
2023-06-30T17:10:17.689Z,100471.53
2023-06-30T17:12:45.166Z,100468.00
2023-06-30T17:15:13.038Z,100456.28
2023-06-30T17:17:40.706Z,100463.41
2023-06-30T17:20:08.719Z,100458.19
2023-06-30T17:22:36.280Z,100454.41
2023-06-30T17:25:05.633Z,100451.72
2023-06-30T17:27:34.156Z,100471.75
2023-06-30T17:30:01.606Z,100466.31
2023-06-30T17:32:29.017Z,100474.47
2023-06-30T17:34:56.485Z,100471.88
2023-06-30T17:37:23.969Z,100460.19
2023-06-30T17:39:51.327Z,100466.66
2023-06-30T17:42:18.974Z,100470.41
2023-06-30T17:44:46.341Z,100467.69
2023-06-30T17:47:13.875Z,100466.81
2023-06-30T17:49:42.945Z,100458.88
2023-06-30T17:52:10.575Z,100465.34
2023-06-30T17:54:38.246Z,100457.19
2023-06-30T17:57:06.064Z,100459.91
2023-06-30T17:59:33.552Z,100453.66
2023-06-30T18:02:01.869Z,100451.94
2023-06-30T18:04:30.325Z,100452.13
2023-06-30T18:07:03.160Z,100447.38
2023-06-30T18:09:31.666Z,100444.84
2023-06-30T18:12:03.126Z,100446.72
2023-06-30T18:14:31.568Z,100439.41
2023-06-30T18:17:00.078Z,100428.75
2023-06-30T18:19:27.853Z,100436.06
2023-06-30T18:21:56.208Z,100431.63
2023-06-30T18:24:24.377Z,100420.13
2023-06-30T18:26:52.173Z,100432.66
2023-06-30T18:29:22.724Z,100436.41
2023-06-30T18:31:51.104Z,100446.59
2023-06-30T18:34:20.231Z,100450.91
2023-06-30T18:36:48.559Z,100452.53
2023-06-30T18:39:19.116Z,100458.94
2023-06-30T18:41:46.725Z,100464.38
2023-06-30T18:44:14.294Z,100473.19
2023-06-30T18:46:42.074Z,100476.53
2023-06-30T18:49:11.993Z,100470.94
2023-06-30T18:51:43.162Z,100479.72
2023-06-30T18:54:11.098Z,100489.59
2023-06-30T18:56:39.237Z,100493.78
2023-06-30T18:59:06.908Z,100494.63
2023-06-30T19:01:34.921Z,100490.91
2023-06-30T19:04:02.827Z,100496.13
2023-06-30T19:06:30.503Z,100503.44
2023-06-30T19:08:57.986Z,100499.69
2023-06-30T19:11:25.712Z,100500.53
2023-06-30T19:13:53.314Z,100502.19
2023-06-30T19:16:21.001Z,100496.13
2023-06-30T19:18:48.495Z,100489.84
2023-06-30T19:21:16.229Z,100488.69
2023-06-30T19:23:43.995Z,100498.13
2023-06-30T19:26:12.558Z,100502.41
2023-06-30T19:28:44.371Z,100498.38
2023-06-30T19:31:11.747Z,100514.06
2023-06-30T19:33:39.374Z,100511.88
2023-06-30T19:36:06.795Z,100518.81
2023-06-30T19:38:34.388Z,100523.59
2023-06-30T19:41:02.056Z,100518.00
2023-06-30T19:43:29.543Z,100523.47
2023-06-30T19:45:56.972Z,100523.53
2023-06-30T19:48:24.406Z,100531.03
2023-06-30T19:50:52.033Z,100522.97
2023-06-30T19:53:19.417Z,100527.31
2023-06-30T19:55:47.264Z,100526.63
2023-06-30T19:58:15.066Z,100525.41
2023-06-30T20:00:42.462Z,100521.47
2023-06-30T20:03:10.072Z,100534.63
2023-06-30T20:05:37.650Z,100534.00
2023-06-30T20:08:05.372Z,100531.47
2023-06-30T20:10:32.908Z,100528.56
2023-06-30T20:13:02.173Z,100529.56
2023-06-30T20:15:29.825Z,100520.59
2023-06-30T20:17:57.329Z,100517.41
2023-06-30T20:20:24.870Z,100499.66
2023-06-30T20:22:52.261Z,100496.19
2023-06-30T20:25:19.771Z,100500.97
2023-06-30T20:27:47.563Z,100505.38
2023-06-30T20:30:15.179Z,100509.38
2023-06-30T20:32:42.602Z,100515.75
2023-06-30T20:35:10.453Z,100515.91
2023-06-30T20:37:38.027Z,100516.91
2023-06-30T20:40:06.254Z,100507.41
2023-06-30T20:42:33.635Z,100511.56
2023-06-30T20:45:01.087Z,100511.41
2023-06-30T20:47:28.537Z,100500.34
2023-06-30T20:49:56.475Z,100483.44
2023-06-30T20:52:23.851Z,100483.63
2023-06-30T20:54:51.323Z,100473.31
2023-06-30T20:57:18.751Z,100473.63
2023-06-30T20:59:46.053Z,100483.53
2023-06-30T21:02:13.501Z,100481.09
2023-06-30T21:04:40.947Z,100486.81
2023-06-30T21:07:08.423Z,100492.63
2023-06-30T21:09:36.896Z,100489.75
2023-06-30T21:12:04.756Z,100483.25
2023-06-30T21:14:32.219Z,100484.03
2023-06-30T21:16:59.754Z,100482.13
2023-06-30T21:19:27.162Z,100492.06
2023-06-30T21:21:54.551Z,100487.59
2023-06-30T21:24:21.807Z,100487.72
2023-06-30T21:26:49.196Z,100490.72
2023-06-30T21:29:16.588Z,100487.47
2023-06-30T21:31:44.050Z,100494.25
2023-06-30T21:34:11.615Z,100491.19
2023-06-30T21:36:39.917Z,100491.66
2023-06-30T21:39:07.525Z,100478.94
2023-06-30T21:41:36.222Z,100480.63
2023-06-30T21:44:03.676Z,100475.88
2023-06-30T21:46:31.038Z,100483.63
2023-06-30T21:48:58.403Z,100478.03
2023-06-30T21:51:25.667Z,100484.09
2023-06-30T21:53:52.981Z,100485.13
2023-06-30T21:56:20.396Z,100477.19
2023-06-30T21:58:47.814Z,100481.28
2023-06-30T22:01:17.902Z,100482.69
2023-06-30T22:03:47.654Z,100481.38
2023-06-30T22:06:15.146Z,100491.22
2023-06-30T22:08:42.589Z,100485.03
2023-06-30T22:11:09.981Z,100483.50
2023-06-30T22:13:37.709Z,100474.78
2023-06-30T22:16:05.099Z,100477.72
2023-06-30T22:18:32.643Z,100477.09
2023-06-30T22:21:00.082Z,100476.22
2023-06-30T22:23:27.431Z,100472.84
2023-06-30T22:25:54.779Z,100479.13
2023-06-30T22:28:22.036Z,100480.31
2023-06-30T22:30:49.485Z,100477.50
2023-06-30T22:33:16.748Z,100476.03
2023-06-30T22:35:45.244Z,100474.53
2023-06-30T22:38:12.659Z,100469.75
2023-06-30T22:40:40.320Z,100465.69
2023-06-30T22:43:07.615Z,100465.31
2023-06-30T22:45:36.277Z,100469.72
2023-06-30T22:48:03.923Z,100460.75
2023-06-30T22:50:31.474Z,100459.91
2023-06-30T22:52:59.964Z,100457.00
2023-06-30T22:55:27.345Z,100459.56
2023-06-30T22:57:54.668Z,100459.38
2023-06-30T23:00:22.318Z,100465.44
2023-06-30T23:02:49.659Z,100456.47
2023-06-30T23:05:17.139Z,100460.00
2023-06-30T23:07:44.759Z,100467.50
2023-06-30T23:10:12.066Z,100460.75
2023-06-30T23:12:39.680Z,100467.19
2023-06-30T23:15:07.441Z,100474.47
2023-06-30T23:17:35.378Z,100471.59
2023-06-30T23:20:04.042Z,100466.31
2023-06-30T23:22:32.261Z,100465.56
2023-06-30T23:25:01.583Z,100471.75
2023-06-30T23:27:30.011Z,100472.94
2023-06-30T23:29:58.067Z,100473.03
2023-06-30T23:32:25.527Z,100474.34
2023-06-30T23:34:53.328Z,100473.63
2023-06-30T23:37:20.640Z,100468.69
2023-06-30T23:39:53.024Z,100469.34
2023-06-30T23:42:20.321Z,100466.28
2023-06-30T23:44:47.705Z,100455.09
2023-06-30T23:47:17.194Z,100445.72
2023-06-30T23:49:47.275Z,100451.81
2023-06-30T23:52:14.761Z,100438.06
2023-06-30T23:54:44.911Z,100443.31
2023-06-30T23:57:12.403Z,100436.66
2023-06-30T23:59:39.807Z,100432.09
